createdAt,value
2018-10-18T00:00:17.944Z,101588.38
2018-10-18T00:02:47.536Z,101589.37
2018-10-18T00:05:17.024Z,101586.76
2018-10-18T00:07:46.575Z,101592.63
2018-10-18T00:10:16.236Z,101587.62
2018-10-18T00:12:45.876Z,101584.33
2018-10-18T00:15:15.431Z,101581.80
2018-10-18T00:17:46.940Z,101581.43
2018-10-18T00:20:17.333Z,101590.36
2018-10-18T00:22:47.334Z,101588.23
2018-10-18T00:25:16.874Z,101599.13
2018-10-18T00:27:46.395Z,101586.37
2018-10-18T00:30:16.434Z,101595.20
2018-10-18T00:32:46.177Z,101593.55
2018-10-18T00:35:15.698Z,101593.53
2018-10-18T00:37:45.263Z,101590.94
2018-10-18T00:40:14.881Z,101594.05
2018-10-18T00:42:44.491Z,101591.51
2018-10-18T00:45:14.344Z,101590.56
2018-10-18T00:47:44.937Z,101593.55
2018-10-18T00:50:15.067Z,101591.67
2018-10-18T00:52:44.703Z,101603.75
2018-10-18T00:55:14.504Z,101598.00
2018-10-18T00:57:44.122Z,101603.17
2018-10-18T01:00:13.873Z,101602.92
2018-10-18T01:02:44.131Z,101609.80
2018-10-18T01:05:13.777Z,101607.23
2018-10-18T01:07:43.370Z,101617.25
2018-10-18T01:10:12.928Z,101618.14
2018-10-18T01:12:42.558Z,101619.14
2018-10-18T01:15:12.790Z,101619.64
2018-10-18T01:17:42.396Z,101617.52
2018-10-18T01:20:12.064Z,101619.33
2018-10-18T01:22:41.412Z,101613.54
2018-10-18T01:25:11.028Z,101613.17
2018-10-18T01:27:40.687Z,101621.44
2018-10-18T01:30:10.328Z,101622.31
2018-10-18T01:32:39.799Z,101624.45
2018-10-18T01:35:09.501Z,101629.68
2018-10-18T01:37:39.220Z,101627.93
2018-10-18T01:40:08.749Z,101631.12
2018-10-18T01:42:38.367Z,101645.56
2018-10-18T01:45:07.908Z,101631.54
2018-10-18T01:47:37.414Z,101630.23
2018-10-18T01:50:08.562Z,101634.67
2018-10-18T01:52:38.095Z,101637.71
2018-10-18T01:55:08.503Z,101631.98
2018-10-18T01:57:38.070Z,101632.41
2018-10-18T02:00:09.326Z,101630.75
2018-10-18T02:02:40.285Z,101626.44
2018-10-18T02:05:09.805Z,101629.44
2018-10-18T02:07:39.305Z,101637.34
2018-10-18T02:10:08.856Z,101635.22
2018-10-18T02:12:38.487Z,101630.41
2018-10-18T02:15:10.230Z,101634.89
2018-10-18T02:17:39.988Z,101626.16
2018-10-18T02:20:10.462Z,101637.69
2018-10-18T02:22:40.553Z,101639.93
2018-10-18T02:25:10.201Z,101642.05
2018-10-18T02:27:40.241Z,101643.61
2018-10-18T02:30:09.954Z,101644.52
2018-10-18T02:32:39.979Z,101640.13
2018-10-18T02:35:09.424Z,101643.16
2018-10-18T02:37:38.971Z,101647.49
2018-10-18T02:40:08.533Z,101649.17
2018-10-18T02:42:38.593Z,101654.84
2018-10-18T02:45:08.409Z,101647.88
2018-10-18T02:47:37.929Z,101647.75
2018-10-18T02:50:07.873Z,101647.81
2018-10-18T02:52:37.550Z,101645.98
2018-10-18T02:55:07.418Z,101647.44
2018-10-18T02:57:36.870Z,101651.36
2018-10-18T03:00:07.675Z,101642.74
2018-10-18T03:02:37.117Z,101647.14
2018-10-18T03:05:07.533Z,101643.34
2018-10-18T03:07:37.148Z,101645.09
2018-10-18T03:10:07.945Z,101651.70
2018-10-18T03:12:37.810Z,101650.00
2018-10-18T03:15:09.092Z,101650.95
2018-10-18T03:17:38.700Z,101652.44
2018-10-18T03:20:08.265Z,101651.88
2018-10-18T03:22:37.817Z,101647.58
2018-10-18T03:25:09.121Z,101651.06
2018-10-18T03:27:39.025Z,101654.23
2018-10-18T03:30:09.444Z,101652.98
2018-10-18T03:32:38.809Z,101656.41
2018-10-18T03:35:09.600Z,101648.47
2018-10-18T03:37:39.397Z,101658.69
2018-10-18T03:40:09.880Z,101660.47
2018-10-18T03:42:39.657Z,101658.66
2018-10-18T03:45:09.828Z,101663.91
2018-10-18T03:47:39.480Z,101667.27
2018-10-18T03:50:09.379Z,101671.30
2018-10-18T03:52:38.960Z,101675.05
2018-10-18T03:55:08.540Z,101675.33
2018-10-18T03:57:38.212Z,101679.12
2018-10-18T04:00:08.973Z,101677.27
2018-10-18T04:02:38.715Z,101674.95
2018-10-18T04:05:09.264Z,101675.14
2018-10-18T04:07:38.795Z,101683.80
2018-10-18T04:10:08.768Z,101680.93
2018-10-18T04:12:38.283Z,101682.47
2018-10-18T04:15:08.440Z,101679.22
2018-10-18T04:17:38.088Z,101686.69
2018-10-18T04:20:08.476Z,101677.92
2018-10-18T04:22:37.982Z,101681.77
2018-10-18T04:25:08.075Z,101681.13
2018-10-18T04:27:37.866Z,101685.37
2018-10-18T04:30:07.858Z,101682.80
2018-10-18T04:32:37.283Z,101684.84
2018-10-18T04:35:08.013Z,101681.81
2018-10-18T04:37:37.975Z,101684.29
2018-10-18T04:40:07.511Z,101684.27
2018-10-18T04:42:37.139Z,101681.64
2018-10-18T04:45:08.426Z,101681.03
2018-10-18T04:47:37.972Z,101687.50
2018-10-18T04:50:08.579Z,101685.94
2018-10-18T04:52:38.137Z,101694.89
2018-10-18T04:55:11.595Z,101691.64
2018-10-18T04:57:41.739Z,101693.83
2018-10-18T05:00:11.601Z,101696.88
2018-10-18T05:02:41.330Z,101692.95
2018-10-18T05:05:27.911Z,101695.46
2018-10-18T05:07:57.585Z,101696.80
2018-10-18T05:10:27.267Z,101698.49
2018-10-18T05:12:56.935Z,101702.28
2018-10-18T05:15:26.449Z,101697.95
2018-10-18T05:17:56.934Z,101699.01
2018-10-18T05:20:26.723Z,101695.75
2018-10-18T05:22:56.276Z,101699.59
2018-10-18T05:25:28.158Z,101707.59
2018-10-18T05:27:58.185Z,101710.40
2018-10-18T05:30:27.914Z,101707.97
2018-10-18T05:32:57.583Z,101707.49
2018-10-18T05:35:27.169Z,101711.28
2018-10-18T05:37:56.657Z,101712.34
2018-10-18T05:40:26.234Z,101715.84
2018-10-18T05:42:55.832Z,101721.09
2018-10-18T05:45:25.496Z,101728.50
2018-10-18T05:47:55.111Z,101724.73
2018-10-18T05:50:24.594Z,101737.32
2018-10-18T05:52:54.467Z,101738.08
2018-10-18T05:55:23.981Z,101733.20
2018-10-18T05:57:53.597Z,101730.95
2018-10-18T06:00:23.217Z,101734.43
2018-10-18T06:02:52.669Z,101738.11
2018-10-18T06:05:22.218Z,101742.97
2018-10-18T06:07:51.681Z,101735.48
2018-10-18T06:10:38.737Z,101740.27
2018-10-18T06:13:08.418Z,101743.33
2018-10-18T06:15:37.862Z,101742.05
2018-10-18T06:18:08.448Z,101753.39
2018-10-18T06:20:38.013Z,101753.36
2018-10-18T06:23:07.897Z,101752.73
2018-10-18T06:25:37.446Z,101747.38
2018-10-18T06:28:06.949Z,101752.39
2018-10-18T06:30:39.112Z,101754.09
2018-10-18T06:33:08.699Z,101758.33
2018-10-18T06:35:38.453Z,101764.52
2018-10-18T06:38:08.048Z,101772.36
2018-10-18T06:40:37.700Z,101765.67
2018-10-18T06:43:07.299Z,101764.72
2018-10-18T06:45:36.749Z,101760.28
2018-10-18T06:48:06.595Z,101759.36
2018-10-18T06:50:36.183Z,101753.23
2018-10-18T06:53:06.744Z,101758.72
2018-10-18T06:55:36.475Z,101756.06
2018-10-18T06:58:06.618Z,101759.14
2018-10-18T07:00:36.620Z,101770.38
2018-10-18T07:03:06.247Z,101776.76
2018-10-18T07:05:36.736Z,101775.09
2018-10-18T07:08:06.447Z,101776.27
2018-10-18T07:10:36.017Z,101769.70
2018-10-18T07:13:05.667Z,101775.25
2018-10-18T07:15:35.247Z,101768.24
2018-10-18T07:18:04.991Z,101775.09
2018-10-18T07:20:34.588Z,101779.09
2018-10-18T07:23:04.197Z,101785.73
2018-10-18T07:25:33.769Z,101789.59
2018-10-18T07:28:03.436Z,101794.41
2018-10-18T07:30:33.162Z,101795.55
2018-10-18T07:33:02.723Z,101795.28
2018-10-18T07:35:32.263Z,101795.25
2018-10-18T07:38:01.756Z,101790.48
2018-10-18T07:40:31.734Z,101787.86
2018-10-18T07:43:01.591Z,101787.77
2018-10-18T07:45:31.128Z,101791.20
2018-10-18T07:48:00.651Z,101798.41
2018-10-18T07:50:30.211Z,101802.53
2018-10-18T07:52:59.877Z,101798.91
2018-10-18T07:55:29.459Z,101804.58
2018-10-18T07:57:59.055Z,101805.48
2018-10-18T08:00:28.854Z,101809.38
2018-10-18T08:02:58.847Z,101810.19
2018-10-18T08:05:28.366Z,101814.13
2018-10-18T08:07:57.869Z,101815.02
2018-10-18T08:10:27.433Z,101816.42
2018-10-18T08:12:57.689Z,101816.98
2018-10-18T08:15:27.212Z,101809.17
2018-10-18T08:17:56.720Z,101809.11
2018-10-18T08:20:26.434Z,101816.53
2018-10-18T08:22:56.091Z,101816.90
2018-10-18T08:25:25.570Z,101819.52
2018-10-18T08:27:55.214Z,101817.26
2018-10-18T08:30:24.758Z,101828.94
2018-10-18T08:32:54.371Z,101826.62
2018-10-18T08:35:23.930Z,101827.84
2018-10-18T08:37:53.663Z,101836.85
2018-10-18T08:40:23.042Z,101834.23
2018-10-18T08:42:53.203Z,101841.47
2018-10-18T08:45:23.143Z,101836.73
2018-10-18T08:47:53.033Z,101844.53
2018-10-18T08:50:22.669Z,101841.77
2018-10-18T08:52:52.416Z,101842.47
2018-10-18T08:55:22.120Z,101849.62
2018-10-18T08:57:51.670Z,101855.59
2018-10-18T09:00:21.203Z,101852.23
2018-10-18T09:02:50.742Z,101852.97
2018-10-18T09:05:20.247Z,101847.52
2018-10-18T09:07:50.883Z,101848.32
2018-10-18T09:10:20.416Z,101847.22
2018-10-18T09:12:50.021Z,101846.51
2018-10-18T09:15:19.619Z,101846.63
2018-10-18T09:17:49.358Z,101846.06
2018-10-18T09:20:18.882Z,101846.45
2018-10-18T09:22:48.556Z,101844.90
2018-10-18T09:25:18.319Z,101855.25
2018-10-18T09:27:47.871Z,101854.61
2018-10-18T09:30:17.503Z,101853.97
2018-10-18T09:32:46.956Z,101857.20
2018-10-18T09:35:16.685Z,101857.85
2018-10-18T09:37:46.378Z,101858.07
2018-10-18T09:40:16.056Z,101856.31
2018-10-18T09:42:46.138Z,101857.59
2018-10-18T09:45:16.686Z,101866.80
2018-10-18T09:47:46.322Z,101856.41
2018-10-18T09:50:16.149Z,101857.11
2018-10-18T09:52:45.717Z,101862.00
2018-10-18T09:55:15.320Z,101860.63
2018-10-18T09:57:44.791Z,101858.44
2018-10-18T10:00:20.520Z,101862.19
2018-10-18T10:03:00.808Z,101861.11
2018-10-18T10:05:31.173Z,101868.11
2018-10-18T10:08:01.233Z,101859.57
2018-10-18T10:10:31.706Z,101859.80
2018-10-18T10:13:01.402Z,101860.45
2018-10-18T10:15:30.922Z,101860.13
2018-10-18T10:18:01.072Z,101858.17
2018-10-18T10:20:30.866Z,101859.45
2018-10-18T10:23:00.411Z,101856.34
2018-10-18T10:25:30.051Z,101851.49
2018-10-18T10:27:59.612Z,101860.94
2018-10-18T10:30:29.344Z,101856.59
2018-10-18T10:32:59.013Z,101854.37
2018-10-18T10:35:28.531Z,101859.67
2018-10-18T10:37:58.272Z,101849.84
2018-10-18T10:40:27.831Z,101849.72
2018-10-18T10:42:57.621Z,101856.48
2018-10-18T10:45:27.315Z,101852.88
2018-10-18T10:47:56.942Z,101846.00
2018-10-18T10:50:26.614Z,101841.34
2018-10-18T10:52:56.227Z,101846.94
2018-10-18T10:55:25.732Z,101847.60
2018-10-18T10:57:55.338Z,101846.89
2018-10-18T11:01:34.923Z,101843.93
2018-10-18T11:04:04.829Z,101840.11
2018-10-18T11:06:34.653Z,101838.55
2018-10-18T11:09:05.720Z,101839.85
2018-10-18T11:11:35.355Z,101839.24
2018-10-18T11:14:05.241Z,101824.00
2018-10-18T11:16:34.894Z,101829.83
2018-10-18T11:19:04.572Z,101832.22
2018-10-18T11:21:34.227Z,101822.00
2018-10-18T11:24:03.784Z,101836.84
2018-10-18T11:26:33.934Z,101828.57
2018-10-18T11:29:03.440Z,101830.11
2018-10-18T11:31:33.120Z,101823.99
2018-10-18T11:34:02.977Z,101828.73
2018-10-18T11:36:32.686Z,101825.86
2018-10-18T11:39:02.388Z,101827.74
2018-10-18T11:41:31.907Z,101826.91
2018-10-18T11:44:01.706Z,101829.53
2018-10-18T11:46:31.294Z,101825.34
2018-10-18T11:49:01.508Z,101823.62
2018-10-18T11:51:31.498Z,101821.09
2018-10-18T11:54:01.231Z,101818.06
2018-10-18T11:56:30.872Z,101816.57
2018-10-18T11:59:00.421Z,101814.50
2018-10-18T12:01:30.209Z,101816.75
2018-10-18T12:03:59.805Z,101816.67
2018-10-18T12:06:29.403Z,101812.58
2018-10-18T12:08:59.851Z,101809.56
2018-10-18T12:11:29.449Z,101804.19
2018-10-18T12:13:59.163Z,101796.28
2018-10-18T12:16:28.889Z,101798.59
2018-10-18T12:18:59.023Z,101797.79
2018-10-18T12:21:28.701Z,101801.98
2018-10-18T12:23:58.987Z,101795.97
2018-10-18T12:26:28.681Z,101798.22
2018-10-18T12:28:58.258Z,101792.23
2018-10-18T12:31:35.585Z,101789.95
2018-10-18T12:34:05.530Z,101800.09
2018-10-18T12:36:35.341Z,101809.84
2018-10-18T12:39:06.448Z,101804.59
2018-10-18T12:41:36.141Z,101804.59
2018-10-18T12:44:05.842Z,101806.63
2018-10-18T12:46:35.662Z,101803.41
2018-10-18T12:49:05.621Z,101806.83
2018-10-18T12:51:35.835Z,101807.70
2018-10-18T12:54:06.065Z,101811.27
2018-10-18T12:56:35.670Z,101803.31
2018-10-18T12:59:05.873Z,101798.11
2018-10-18T13:01:35.663Z,101804.14
2018-10-18T13:04:05.484Z,101800.74
2018-10-18T13:06:35.051Z,101805.88
2018-10-18T13:09:06.634Z,101809.94
2018-10-18T13:11:36.240Z,101808.09
2018-10-18T13:14:06.507Z,101812.66
2018-10-18T13:16:38.197Z,101815.06
2018-10-18T13:19:08.033Z,101819.38
2018-10-18T13:21:38.061Z,101816.24
2018-10-18T13:24:07.767Z,101816.66
2018-10-18T13:26:38.052Z,101816.66
2018-10-18T13:29:08.943Z,101814.02
2018-10-18T13:31:38.720Z,101815.02
2018-10-18T13:34:09.285Z,101805.82
2018-10-18T13:36:40.892Z,101806.54
2018-10-18T13:39:14.802Z,101813.37
2018-10-18T13:41:45.337Z,101811.51
2018-10-18T13:44:15.009Z,101813.74
2018-10-18T13:46:45.027Z,101814.15
2018-10-18T13:49:15.201Z,101818.14
2018-10-18T13:51:44.946Z,101806.53
2018-10-18T13:54:14.637Z,101805.75
2018-10-18T13:56:45.258Z,101809.95
2018-10-18T13:59:33.406Z,101807.27
2018-10-18T14:02:04.180Z,101812.05
2018-10-18T14:04:34.884Z,101808.97
2018-10-18T14:07:04.572Z,101810.16
2018-10-18T14:09:34.183Z,101814.72
2018-10-18T14:12:03.934Z,101817.53
2018-10-18T14:14:33.987Z,101817.55
2018-10-18T14:17:03.655Z,101814.78
2018-10-18T14:19:33.170Z,101813.58
2018-10-18T14:22:02.767Z,101814.86
2018-10-18T14:24:33.051Z,101813.80
2018-10-18T14:27:02.819Z,101813.98
2018-10-18T14:29:32.563Z,101807.66
2018-10-18T14:32:02.218Z,101815.78
2018-10-18T14:34:31.913Z,101811.75
2018-10-18T14:37:01.600Z,101810.70
2018-10-18T14:39:31.789Z,101811.67
2018-10-18T14:42:01.881Z,101808.53
2018-10-18T14:44:31.564Z,101808.28
2018-10-18T14:47:02.155Z,101805.89
2018-10-18T14:49:31.956Z,101796.97
2018-10-18T14:52:01.696Z,101798.88
2018-10-18T14:54:31.823Z,101798.97
2018-10-18T14:57:01.747Z,101795.40
2018-10-18T14:59:31.505Z,101798.18
2018-10-18T15:02:01.967Z,101804.38
2018-10-18T15:04:31.920Z,101796.16
2018-10-18T15:07:01.486Z,101793.52
2018-10-18T15:09:31.093Z,101802.91
2018-10-18T15:12:00.861Z,101802.63
2018-10-18T15:14:30.526Z,101805.08
2018-10-18T15:17:00.590Z,101810.61
2018-10-18T15:19:30.321Z,101809.41
2018-10-18T15:22:00.161Z,101806.44
2018-10-18T15:24:30.190Z,101811.48
2018-10-18T15:27:00.166Z,101811.88
2018-10-18T15:29:29.604Z,101810.05
2018-10-18T15:31:59.594Z,101807.44
2018-10-18T15:34:29.463Z,101808.55
2018-10-18T15:36:59.308Z,101808.71
2018-10-18T15:39:29.807Z,101812.77
2018-10-18T15:42:00.105Z,101812.87
2018-10-18T15:44:30.571Z,101816.66
2018-10-18T15:47:04.037Z,101813.53
2018-10-18T15:49:36.726Z,101810.08
2018-10-18T15:52:10.261Z,101818.73
2018-10-18T15:54:41.359Z,101815.66
2018-10-18T15:57:13.096Z,101808.63
2018-10-18T15:59:43.802Z,101812.23
2018-10-18T16:02:13.996Z,101816.83
2018-10-18T16:04:45.113Z,101819.66
2018-10-18T16:07:14.901Z,101826.70
2018-10-18T16:09:44.692Z,101827.42
2018-10-18T16:12:14.873Z,101824.39
2018-10-18T16:14:44.559Z,101837.78
2018-10-18T16:17:14.135Z,101839.42
2018-10-18T16:19:43.861Z,101843.42
2018-10-18T16:22:13.660Z,101844.64
2018-10-18T16:24:47.225Z,101850.34
2018-10-18T16:27:16.948Z,101850.64
2018-10-18T16:29:46.540Z,101859.19
2018-10-18T16:32:16.855Z,101858.65
2018-10-18T16:34:46.394Z,101858.00
2018-10-18T16:37:16.379Z,101860.47
2018-10-18T16:39:45.840Z,101854.30
2018-10-18T16:42:15.498Z,101863.09
2018-10-18T16:45:15.741Z,101860.55
2018-10-18T16:47:45.499Z,101861.06
2018-10-18T16:50:15.563Z,101866.40
2018-10-18T16:52:45.215Z,101874.11
2018-10-18T16:55:14.636Z,101866.91
2018-10-18T16:57:44.035Z,101874.70
2018-10-18T17:00:13.455Z,101879.58
2018-10-18T17:02:42.867Z,101876.35
2018-10-18T17:05:12.281Z,101876.85
2018-10-18T17:07:41.757Z,101876.12
2018-10-18T17:10:11.297Z,101878.69
2018-10-18T17:12:40.603Z,101876.71
2018-10-18T17:15:10.180Z,101877.88
2018-10-18T17:17:40.221Z,101877.16
2018-10-18T17:20:09.818Z,101874.09
2018-10-18T17:22:39.208Z,101875.09
2018-10-18T17:25:08.760Z,101879.16
2018-10-18T17:27:38.174Z,101883.54
2018-10-18T17:30:07.655Z,101884.06
2018-10-18T17:32:37.343Z,101887.05
2018-10-18T17:35:07.349Z,101883.92
2018-10-18T17:37:36.855Z,101887.47
2018-10-18T17:40:07.424Z,101884.92
2018-10-18T17:42:36.781Z,101896.47
2018-10-18T17:45:08.076Z,101896.47
2018-10-18T17:47:37.744Z,101896.11
2018-10-18T17:50:08.319Z,101889.94
2018-10-18T17:52:37.923Z,101895.99
2018-10-18T17:55:08.157Z,101893.98
2018-10-18T17:57:38.284Z,101894.81
2018-10-18T18:00:10.788Z,101895.68
2018-10-18T18:02:41.952Z,101888.76
2018-10-18T18:05:12.603Z,101897.99
2018-10-18T18:07:42.330Z,101897.41
2018-10-18T18:10:14.075Z,101895.92
2018-10-18T18:12:43.592Z,101895.55
2018-10-18T18:15:13.016Z,101899.06
2018-10-18T18:17:42.611Z,101896.44
2018-10-18T18:20:12.965Z,101894.63
2018-10-18T18:22:42.520Z,101901.98
2018-10-18T18:25:12.554Z,101905.25
2018-10-18T18:27:43.773Z,101904.30
2018-10-18T18:30:14.665Z,101903.14
2018-10-18T18:32:44.421Z,101903.49
2018-10-18T18:35:13.934Z,101909.47
2018-10-18T18:37:43.381Z,101911.30
2018-10-18T18:40:13.086Z,101913.09
2018-10-18T18:42:43.006Z,101913.42
2018-10-18T18:45:18.044Z,101921.27
2018-10-18T18:47:47.742Z,101919.98
2018-10-18T18:50:17.133Z,101926.58
2018-10-18T18:52:47.242Z,101932.36
2018-10-18T18:55:16.625Z,101931.02
2018-10-18T18:57:46.321Z,101934.52
2018-10-18T19:00:16.051Z,101938.17
2018-10-18T19:02:45.462Z,101940.97
2018-10-18T19:05:15.199Z,101942.53
2018-10-18T19:07:44.607Z,101948.95
2018-10-18T19:10:14.077Z,101954.47
2018-10-18T19:12:43.463Z,101959.67
2018-10-18T19:15:13.017Z,101963.78
2018-10-18T19:17:42.482Z,101969.83
2018-10-18T19:20:11.937Z,101955.12
2018-10-18T19:22:42.245Z,101963.67
2018-10-18T19:25:16.281Z,101956.30
2018-10-18T19:27:45.943Z,101966.44
2018-10-18T19:30:15.768Z,101972.55
2018-10-18T19:32:45.614Z,101967.30
2018-10-18T19:35:15.116Z,101965.84
2018-10-18T19:37:44.616Z,101971.51
2018-10-18T19:40:14.287Z,101970.58
2018-10-18T19:42:43.918Z,101976.80
2018-10-18T19:45:13.444Z,101971.46
2018-10-18T19:47:43.083Z,101974.23
2018-10-18T19:50:12.929Z,101972.54
2018-10-18T19:52:42.480Z,101972.54
2018-10-18T19:55:11.854Z,101978.70
2018-10-18T19:57:41.360Z,101981.31
2018-10-18T20:00:11.230Z,101983.59
2018-10-18T20:02:41.460Z,101979.19
2018-10-18T20:05:10.803Z,101983.61
2018-10-18T20:07:40.419Z,101984.90
2018-10-18T20:10:10.332Z,101990.21
2018-10-18T20:12:39.936Z,101982.80
2018-10-18T20:15:09.484Z,101986.66
2018-10-18T20:17:38.905Z,101991.95
2018-10-18T20:20:10.181Z,101986.28
2018-10-18T20:22:39.960Z,101991.95
2018-10-18T20:25:10.353Z,101991.45
2018-10-18T20:29:04.395Z,101989.34
2018-10-18T20:31:34.182Z,101990.14
2018-10-18T20:34:03.746Z,101986.67
2018-10-18T20:36:33.257Z,101987.91
2018-10-18T20:39:02.748Z,101990.59
2018-10-18T20:41:32.137Z,101983.21
2018-10-18T20:44:01.773Z,101980.67
2018-10-18T20:46:31.390Z,101984.10
2018-10-18T20:49:00.892Z,101987.53
2018-10-18T20:51:31.412Z,101984.11
2018-10-18T20:54:01.108Z,101984.50
2018-10-18T20:56:30.672Z,101980.59
2018-10-18T20:59:00.144Z,101980.11
2018-10-18T21:01:30.116Z,101981.81
2018-10-18T21:03:59.936Z,101973.96
2018-10-18T21:06:29.409Z,101984.50
2018-10-18T21:08:58.909Z,101981.86
2018-10-18T21:11:28.341Z,101983.21
2018-10-18T21:13:57.972Z,101983.61
2018-10-18T21:16:27.507Z,101980.61
2018-10-18T21:18:57.418Z,101988.88
2018-10-18T21:21:27.066Z,101982.35
2018-10-18T21:23:56.457Z,101978.83
2018-10-18T21:26:25.998Z,101970.97
2018-10-18T21:28:55.636Z,101970.96
2018-10-18T21:31:25.852Z,101956.13
2018-10-18T21:33:55.414Z,101957.00
2018-10-18T21:36:24.882Z,101960.88
2018-10-18T21:38:55.012Z,101952.20
2018-10-18T21:41:25.738Z,101954.38
2018-10-18T21:43:55.176Z,101952.59
2018-10-18T21:46:24.683Z,101955.65
2018-10-18T21:48:54.251Z,101954.71
2018-10-18T21:51:23.736Z,101954.72
2018-10-18T21:53:53.342Z,101955.55
2018-10-18T21:56:22.982Z,101960.87
2018-10-18T21:58:52.431Z,101961.70
2018-10-18T22:04:02.470Z,101959.20
2018-10-18T22:06:31.893Z,101960.00
2018-10-18T22:09:01.428Z,101959.17
2018-10-18T22:11:30.838Z,101959.20
2018-10-18T22:14:00.386Z,101954.89
2018-10-18T22:16:29.887Z,101957.12
2018-10-18T22:19:00.035Z,101963.61
2018-10-18T22:21:29.551Z,101950.64
2018-10-18T22:23:59.107Z,101952.37
2018-10-18T22:26:28.759Z,101944.48
2018-10-18T22:28:58.221Z,101940.22
2018-10-18T22:31:27.951Z,101946.18
2018-10-18T22:33:57.680Z,101939.25
2018-10-18T22:36:27.128Z,101946.66
2018-10-18T22:38:56.579Z,101935.42
2018-10-18T22:41:26.088Z,101933.30
2018-10-18T22:43:55.639Z,101933.31
2018-10-18T22:46:25.275Z,101937.23
2018-10-18T22:48:54.783Z,101939.84
2018-10-18T22:51:24.317Z,101942.02
2018-10-18T22:53:53.813Z,101941.09
2018-10-18T22:56:23.518Z,101941.92
2018-10-18T22:58:52.949Z,101938.04
2018-10-18T23:01:22.359Z,101936.78
2018-10-18T23:03:51.786Z,101936.69
2018-10-18T23:06:21.162Z,101933.19
2018-10-18T23:08:50.649Z,101935.82
2018-10-18T23:11:20.460Z,101937.60
2018-10-18T23:13:49.904Z,101933.67
2018-10-18T23:16:19.449Z,101932.86
2018-10-18T23:18:48.984Z,101935.53
2018-10-18T23:21:18.586Z,101932.09
2018-10-18T23:23:48.096Z,101936.13
2018-10-18T23:26:17.619Z,101933.02
2018-10-18T23:28:47.004Z,101931.70
2018-10-18T23:31:16.579Z,101926.91
2018-10-18T23:33:46.123Z,101916.50
2018-10-18T23:36:15.946Z,101923.91
2018-10-18T23:38:45.338Z,101922.55
2018-10-18T23:41:14.896Z,101922.23
2018-10-18T23:43:44.331Z,101916.16
2018-10-18T23:46:13.789Z,101913.50
2018-10-18T23:48:43.257Z,101909.47
2018-10-18T23:51:13.537Z,101909.68
2018-10-18T23:53:42.988Z,101909.63
2018-10-18T23:56:12.498Z,101904.83
2018-10-18T23:58:42.011Z,101904.39
